Jamestown, Ohio
Current Conditions -  °F | °C
As of 11:56 PM on Saturday 22 Nov 2014 (Local Time) from KSGH Reporting Station
Overcast Overcast  
Wind Chill: 50°   Ceiling: 8500
Heat Index: 50°   Visibility: 9mi
Dew Point: 35°   Wind: 8mph
Humidity: 56%   Direction: 180°S
Pressure: 30.06"   Gusts: NA
Location:  39.66°N, 83.73°W
Report Text: KSGH 230456Z AUTO 18007KT 9SM OVC085 10/02 A3006 RMK AO2 T01000016 SLP180 $
Loading
Personal Weather Stations






























Interactive Weather Map New forecast layout! Learn more

10-Day Weather Forecast

Advertisements
Track Severe Weather on mobile